Terminal Aerodrome Forecast
Issued by NWS

Home | Current Version | Previous Version | Text Only | Print | Product List | Glossary On
Versions: 1 2 3 4 5 6 7 8 9 10 11 12 13 14 15
000
FTUS43 KGRB 011100
TAFCWA
TAF
KCWA 011124Z 0112/0212 VRB03KT 2SM BR SCT250
      TEMPO 0112/0113 1/4SM FG VV002
     FM011300 28005KT P6SM SCT015
     FM011700 28006KT P6SM SCT050 SCT080
      TEMPO 0120/0124 3SM TSRA BKN035CB
     FM020100 VRB03KT P6SM SCT050
      TEMPO 0208/0212 2SM BR=

USA.gov is the U.S. government's official web portal to all federal, state and local government web resources and services.